Time;durP1;ratioP1;P1;durP2;ratioP2;P2;SDS_P1;SDS_P2;PMS_P1;PMS_P2;Temp;Humidity;BMP_temperature;BMP_pressure;BME280_temperature;BME280_humidity;BME280_pressure;Samples;Min_cycle;Max_cycle;Signal;HPM_P1;HPM_P2
2022/05/31 00:00:40;;;;;;;2.13;1.63;;;7.70;99.90;;;;;;5031491;28;20206;-40
2022/05/31 00:03:09;;;;;;;1.83;1.73;;;7.70;99.90;;;;;;5047298;28;20572;-47
2022/05/31 00:05:36;;;;;;;2.90;1.60;;;7.70;99.90;;;;;;5042424;28;20351;-42
2022/05/31 00:08:04;;;;;;;2.57;1.23;;;7.70;99.90;;;;;;5044205;28;20226;-45
2022/05/31 00:10:31;;;;;;;2.97;1.50;;;7.70;99.90;;;;;;5056746;28;20190;-44
2022/05/31 00:12:58;;;;;;;2.33;1.70;;;7.60;99.90;;;;;;5055649;28;20190;-42
2022/05/31 00:15:25;;;;;;;2.53;1.60;;;7.50;99.90;;;;;;5043988;28;20203;-40
2022/05/31 00:17:52;;;;;;;2.87;1.90;;;7.50;99.90;;;;;;5049706;28;20221;-42
2022/05/31 00:20:21;;;;;;;2.37;1.83;;;7.50;99.90;;;;;;5049848;28;20230;-41
2022/05/31 00:22:49;;;;;;;1.50;1.40;;;7.50;99.90;;;;;;5050991;28;20573;-46
2022/05/31 00:25:16;;;;;;;1.93;1.53;;;7.40;99.90;;;;;;5045879;28;20210;-40
2022/05/31 00:27:44;;;;;;;4.33;1.87;;;7.40;99.90;;;;;;5045545;28;20211;-43
2022/05/31 00:30:13;;;;;;;2.00;1.80;;;7.40;99.90;;;;;;5045672;28;20211;-41
2022/05/31 00:32:44;;;;;;;2.10;1.80;;;7.30;99.90;;;;;;5044804;28;20213;-43
2022/05/31 00:35:16;;;;;;;2.10;1.90;;;7.30;99.90;;;;;;5049359;28;20675;-44
2022/05/31 00:37:44;;;;;;;2.00;1.67;;;7.20;99.90;;;;;;5042440;28;20234;-46
2022/05/31 00:40:13;;;;;;;2.20;1.90;;;7.20;99.90;;;;;;5047373;28;20196;-41
2022/05/31 00:42:53;;;;;;;2.17;1.90;;;7.20;99.90;;;;;;5055390;28;20194;-42
2022/05/31 00:45:21;;;;;;;2.60;2.00;;;7.20;99.90;;;;;;5044923;28;20222;-41
2022/05/31 00:47:48;;;;;;;2.20;1.90;;;7.20;99.90;;;;;;5037178;28;20215;-43
2022/05/31 00:50:24;;;;;;;3.73;2.13;;;7.20;99.90;;;;;;5051106;28;20222;-41
2022/05/31 00:52:56;;;;;;;2.43;1.90;;;7.20;99.90;;;;;;5043869;28;20206;-42
2022/05/31 00:55:28;;;;;;;2.53;1.73;;;7.10;99.90;;;;;;5045006;28;20203;-43
2022/05/31 00:57:59;;;;;;;2.90;2.03;;;7.10;99.90;;;;;;5047146;28;20276;-40
2022/05/31 01:00:26;;;;;;;2.57;1.60;;;7.10;99.90;;;;;;5042203;28;20219;-42
2022/05/31 01:02:54;;;;;;;2.50;2.17;;;7.00;99.90;;;;;;5041642;28;20202;-41
2022/05/31 01:05:24;;;;;;;2.33;2.10;;;7.10;99.90;;;;;;5053563;28;20249;-42
2022/05/31 01:07:52;;;;;;;2.07;1.97;;;7.10;99.90;;;;;;5044991;28;20718;-41
2022/05/31 01:10:20;;;;;;;2.63;2.00;;;7.00;99.90;;;;;;5049627;28;20285;-46
2022/05/31 01:13:14;;;;;;;2.37;2.00;;;7.00;99.90;;;;;;5057179;28;20278;-44
2022/05/31 01:16:10;;;;;;;2.40;2.20;;;7.00;99.90;;;;;;5059352;28;20675;-46
2022/05/31 01:18:55;;;;;;;1.93;1.80;;;7.00;99.90;;;;;;5053470;28;20264;-43
2022/05/31 01:21:54;;;;;;;2.00;1.90;;;6.90;99.90;;;;;;5062267;28;20273;-44
2022/05/31 01:24:45;;;;;;;2.27;2.07;;;6.90;99.90;;;;;;5045584;28;20207;-41
2022/05/31 01:27:21;;;;;;;2.20;2.00;;;6.90;99.90;;;;;;5044723;28;20738;-41
2022/05/31 01:29:49;;;;;;;2.03;1.83;;;6.90;99.90;;;;;;5045022;28;20223;-41
2022/05/31 01:32:16;;;;;;;2.30;2.10;;;6.90;99.90;;;;;;5044848;28;20286;-41
2022/05/31 01:34:52;;;;;;;4.60;1.90;;;6.80;99.90;;;;;;5037088;28;21017;-45
2022/05/31 01:37:25;;;;;;;2.53;1.83;;;6.80;99.90;;;;;;5052039;28;20679;-42
2022/05/31 01:39:57;;;;;;;2.10;2.00;;;6.70;99.90;;;;;;5045124;28;20214;-42
2022/05/31 01:42:29;;;;;;;3.73;2.03;;;6.60;99.90;;;;;;5047457;28;20203;-42
2022/05/31 01:45:01;;;;;;;4.27;2.33;;;6.60;99.90;;;;;;5045853;28;20691;-42
2022/05/31 01:47:29;;;;;;;2.80;2.17;;;6.60;99.90;;;;;;5042090;28;20207;-45
2022/05/31 01:49:56;;;;;;;2.40;2.20;;;6.70;99.90;;;;;;5044753;28;20786;-43
2022/05/31 01:52:24;;;;;;;2.17;2.00;;;6.80;99.90;;;;;;5036443;28;20683;-41
2022/05/31 01:54:54;;;;;;;2.63;2.43;;;6.80;99.90;;;;;;5053790;28;20203;-40
2022/05/31 01:57:22;;;;;;;2.20;2.00;;;6.80;99.90;;;;;;5042865;28;20207;-44
2022/05/31 01:59:55;;;;;;;2.63;2.43;;;6.70;99.90;;;;;;5043912;28;20242;-41
2022/05/31 02:02:22;;;;;;;2.30;2.10;;;6.60;99.90;;;;;;5041926;28;20211;-41
2022/05/31 02:04:50;;;;;;;2.60;2.40;;;6.60;99.90;;;;;;5044809;28;20210;-42
2022/05/31 02:07:19;;;;;;;2.63;1.97;;;6.50;99.90;;;;;;5041083;28;20706;-40
2022/05/31 02:09:49;;;;;;;2.50;2.30;;;6.50;99.90;;;;;;5051136;28;20215;-41
2022/05/31 02:12:25;;;;;;;2.63;2.43;;;6.50;99.90;;;;;;5046333;28;20218;-42
2022/05/31 02:15:12;;;;;;;3.23;2.37;;;6.50;99.90;;;;;;5047275;28;20211;-41
2022/05/31 02:17:52;;;;;;;3.03;2.73;;;6.60;99.90;;;;;;5044066;28;20226;-41
2022/05/31 02:20:35;;;;;;;2.77;2.57;;;6.60;99.90;;;;;;5032549;28;20202;-41
2022/05/31 02:23:03;;;;;;;3.10;2.17;;;6.60;99.90;;;;;;5054417;28;20583;-43
2022/05/31 02:25:32;;;;;;;2.63;2.43;;;6.50;99.90;;;;;;5035495;28;21564;-41
2022/05/31 02:27:58;;;;;;;3.67;2.37;;;6.50;99.90;;;;;;5044683;28;20230;-45
2022/05/31 02:30:25;;;;;;;2.60;2.17;;;6.40;99.90;;;;;;5040508;28;20243;-41
2022/05/31 02:32:52;;;;;;;2.63;2.20;;;6.40;99.90;;;;;;5044140;28;20274;-43
2022/05/31 02:35:19;;;;;;;2.53;2.33;;;6.40;99.90;;;;;;5041405;28;20199;-40
2022/05/31 02:37:46;;;;;;;2.50;2.30;;;6.50;99.90;;;;;;5043535;28;20365;-43
2022/05/31 02:40:13;;;;;;;2.60;2.37;;;6.50;99.90;;;;;;5054416;28;20188;-41
2022/05/31 02:42:42;;;;;;;4.73;2.53;;;6.40;99.90;;;;;;5047718;28;20187;-40
2022/05/31 02:45:11;;;;;;;2.53;1.80;;;6.30;99.90;;;;;;5044106;28;20593;-40
2022/05/31 02:47:39;;;;;;;2.53;2.33;;;6.30;99.90;;;;;;5042067;28;20231;-43
2022/05/31 02:50:07;;;;;;;2.63;2.43;;;6.30;99.90;;;;;;5044796;28;20314;-41
2022/05/31 02:52:34;;;;;;;2.60;2.40;;;6.40;99.90;;;;;;5034047;28;20993;-42
2022/05/31 02:55:02;;;;;;;2.53;2.27;;;6.30;99.90;;;;;;5048139;28;20282;-44
2022/05/31 02:57:51;;;;;;;2.30;2.10;;;6.20;99.90;;;;;;5042894;28;20570;-40
2022/05/31 03:00:36;;;;;;;3.30;2.23;;;6.10;99.90;;;;;;5041304;28;20961;-40
2022/05/31 03:03:35;;;;;;;3.20;2.60;;;6.10;99.90;;;;;;5055562;28;20203;-43
2022/05/31 03:06:23;;;;;;;3.10;2.80;;;6.20;99.90;;;;;;5061003;28;20317;-42
2022/05/31 03:09:04;;;;;;;2.60;2.10;;;6.10;99.90;;;;;;5039157;28;20575;-44
2022/05/31 03:11:41;;;;;;;5.33;2.40;;;6.10;99.90;;;;;;5054449;28;20275;-44
2022/05/31 03:14:15;;;;;;;2.73;2.53;;;6.10;99.90;;;;;;5044997;28;20830;-41
2022/05/31 03:16:46;;;;;;;2.77;2.20;;;6.10;99.90;;;;;;5042390;28;20904;-44
2022/05/31 03:19:19;;;;;;;2.63;2.43;;;6.10;99.90;;;;;;5043033;28;20219;-40
2022/05/31 03:21:51;;;;;;;5.40;2.40;;;6.10;99.90;;;;;;5041918;28;20199;-40
2022/05/31 03:24:23;;;;;;;3.33;2.40;;;6.00;99.90;;;;;;5034447;28;20215;-42
2022/05/31 03:26:54;;;;;;;2.77;2.47;;;6.00;99.90;;;;;;5047768;28;20251;-44
2022/05/31 03:29:24;;;;;;;2.53;2.30;;;6.00;99.90;;;;;;5038438;28;20223;-42
2022/05/31 03:31:51;;;;;;;3.27;3.03;;;5.90;99.90;;;;;;5048365;28;20234;-41
2022/05/31 03:34:18;;;;;;;3.97;2.70;;;6.00;99.90;;;;;;5045015;28;20199;-43
2022/05/31 03:36:45;;;;;;;3.57;2.53;;;6.00;99.90;;;;;;5041911;28;20203;-44
2022/05/31 03:39:15;;;;;;;3.03;2.70;;;6.10;99.90;;;;;;5038456;28;20223;-41
2022/05/31 03:41:41;;;;;;;2.97;2.67;;;6.10;99.90;;;;;;5046625;28;20187;-45
2022/05/31 03:44:09;;;;;;;4.23;2.53;;;6.10;99.90;;;;;;5047050;28;20302;-42
2022/05/31 03:46:47;;;;;;;2.67;2.40;;;6.00;99.90;;;;;;5045935;28;20899;-41
2022/05/31 03:49:31;;;;;;;3.10;2.50;;;6.00;99.90;;;;;;5053592;28;20234;-40
2022/05/31 03:52:05;;;;;;;2.90;2.67;;;6.00;99.90;;;;;;5061926;28;20199;-43
2022/05/31 03:54:38;;;;;;;3.03;2.73;;;6.10;99.90;;;;;;5058323;28;20975;-41
2022/05/31 03:57:15;;;;;;;2.73;2.47;;;6.10;99.90;;;;;;5045699;28;20215;-43
2022/05/31 03:59:45;;;;;;;2.70;2.50;;;6.10;99.90;;;;;;5041807;28;20969;-41
2022/05/31 04:02:14;;;;;;;3.43;2.27;;;6.00;99.90;;;;;;5034947;28;20205;-40
2022/05/31 04:04:41;;;;;;;3.87;3.00;;;6.00;99.90;;;;;;5050264;28;20207;-42
2022/05/31 04:07:08;;;;;;;4.43;2.57;;;6.00;99.90;;;;;;5044833;28;20218;-41
2022/05/31 04:09:37;;;;;;;3.20;2.90;;;6.00;99.90;;;;;;5050996;28;20307;-41
2022/05/31 04:12:10;;;;;;;3.17;2.97;;;6.00;99.90;;;;;;5034500;28;20219;-43
2022/05/31 04:15:10;;;;;;;3.20;2.93;;;6.10;99.90;;;;;;5052589;28;20219;-43
2022/05/31 04:17:38;;;;;;;3.43;2.97;;;6.10;99.90;;;;;;5042939;28;20275;-41
2022/05/31 04:20:06;;;;;;;3.23;2.60;;;6.10;99.90;;;;;;5044751;28;20633;-42
2022/05/31 04:22:33;;;;;;;3.03;2.73;;;6.10;99.90;;;;;;5040329;28;20203;-41
2022/05/31 04:25:20;;;;;;;3.83;2.53;;;6.10;99.90;;;;;;5038948;28;20297;-41
2022/05/31 04:28:22;;;;;;;2.80;2.50;;;6.10;99.90;;;;;;5035804;28;20578;-41
2022/05/31 04:31:08;;;;;;;3.43;3.13;;;6.20;99.90;;;;;;5049306;28;20197;-40
2022/05/31 04:33:56;;;;;;;3.23;2.93;;;6.30;99.90;;;;;;5050470;28;20207;-41
2022/05/31 04:36:23;;;;;;;4.60;3.73;;;6.40;99.90;;;;;;5051861;28;20215;-40
2022/05/31 04:38:50;;;;;;;3.40;3.10;;;6.40;99.90;;;;;;5051059;28;20226;-41
2022/05/31 04:41:23;;;;;;;4.10;3.70;;;6.40;99.90;;;;;;5047181;28;20229;-40
2022/05/31 04:44:00;;;;;;;3.53;3.07;;;6.40;99.90;;;;;;5039011;28;20280;-42
2022/05/31 04:46:35;;;;;;;3.80;3.13;;;6.50;99.90;;;;;;5048105;28;20934;-41
2022/05/31 04:49:14;;;;;;;4.90;3.53;;;6.50;99.90;;;;;;5043797;28;20227;-40
2022/05/31 04:51:43;;;;;;;7.40;4.77;;;6.60;99.90;;;;;;5053543;28;20190;-41
2022/05/31 04:54:13;;;;;;;5.30;4.00;;;6.70;99.90;;;;;;5041130;28;20677;-41
2022/05/31 04:56:48;;;;;;;4.60;4.20;;;6.70;99.90;;;;;;5049836;28;20289;-40
2022/05/31 04:59:17;;;;;;;5.93;4.23;;;6.80;99.90;;;;;;5048747;28;20215;-40
2022/05/31 05:01:44;;;;;;;5.93;3.90;;;6.90;99.90;;;;;;5048736;28;20286;-40
2022/05/31 05:04:32;;;;;;;4.73;4.23;;;7.00;99.90;;;;;;5047608;28;20197;-44
2022/05/31 05:07:00;;;;;;;6.90;4.60;;;7.10;99.90;;;;;;5053252;28;20686;-40
2022/05/31 05:09:27;;;;;;;5.43;4.70;;;7.20;99.90;;;;;;5050341;28;20211;-39
2022/05/31 05:12:12;;;;;;;7.00;4.17;;;7.30;99.90;;;;;;5051816;28;20214;-50
2022/05/31 05:14:44;;;;;;;6.37;4.57;;;7.40;99.90;;;;;;5040264;28;20203;-46
2022/05/31 05:17:16;;;;;;;5.83;5.23;;;7.50;99.90;;;;;;5054237;28;20209;-50
2022/05/31 05:19:48;;;;;;;6.33;4.77;;;7.60;99.90;;;;;;5046680;28;20562;-50
2022/05/31 05:22:16;;;;;;;6.27;5.03;;;7.70;99.90;;;;;;5051578;28;20198;-52
2022/05/31 05:24:43;;;;;;;5.43;4.17;;;7.90;99.90;;;;;;5059985;28;20260;-44
2022/05/31 05:27:33;;;;;;;5.07;4.40;;;8.00;99.90;;;;;;5059731;28;20203;-47
2022/05/31 05:33:28;;;;;;;5.70;4.67;;;8.20;99.90;;;;;;5044990;28;20207;-51
2022/05/31 05:36:16;;;;;;;5.60;4.03;;;8.30;99.90;;;;;;5046733;28;20234;-52
2022/05/31 05:38:44;;;;;;;5.67;4.27;;;8.40;99.90;;;;;;5060845;28;20234;-47
2022/05/31 05:41:31;;;;;;;3.67;3.37;;;8.50;99.90;;;;;;5045620;28;20218;-50
2022/05/31 05:44:18;;;;;;;3.80;3.30;;;8.60;99.90;;;;;;5053254;28;20214;-48
2022/05/31 05:46:47;;;;;;;3.87;3.50;;;8.80;99.90;;;;;;5043511;28;20203;-46
2022/05/31 05:49:13;;;;;;;4.20;2.83;;;8.90;99.90;;;;;;5049562;28;20809;-50
2022/05/31 05:51:43;;;;;;;4.50;2.33;;;9.00;99.90;;;;;;5043421;28;20274;-48
2022/05/31 05:54:29;;;;;;;3.80;2.40;;;9.10;99.90;;;;;;5060600;28;20276;-46
2022/05/31 05:57:15;;;;;;;3.20;2.10;;;9.20;99.90;;;;;;5042982;28;20586;-49
2022/05/31 06:00:07;;;;;;;2.50;2.00;;;9.40;99.90;;;;;;5048128;28;20677;-51
2022/05/31 06:03:01;;;;;;;1.53;1.43;;;9.60;99.90;;;;;;5065716;28;20671;-50
2022/05/31 06:05:49;;;;;;;2.67;1.87;;;9.70;99.90;;;;;;5039590;28;20250;-49
2022/05/31 06:08:22;;;;;;;2.00;1.90;;;9.80;99.90;;;;;;5041032;28;20227;-49
2022/05/31 06:11:00;;;;;;;1.57;1.47;;;9.90;99.90;;;;;;5054245;28;20237;-46
2022/05/31 06:13:33;;;;;;;2.30;1.27;;;9.90;99.90;;;;;;5048051;28;20198;-48
2022/05/31 06:16:00;;;;;;;3.30;1.00;;;10.00;99.90;;;;;;5035071;28;20291;-46
2022/05/31 06:18:31;;;;;;;1.10;1.10;;;10.10;99.90;;;;;;5047308;28;20929;-52
2022/05/31 06:21:03;;;;;;;2.13;1.30;;;10.20;99.90;;;;;;5044258;28;20199;-46
2022/05/31 06:23:32;;;;;;;2.47;0.97;;;10.30;99.90;;;;;;5041009;28;20230;-46
2022/05/31 06:26:01;;;;;;;1.30;1.00;;;10.30;99.90;;;;;;5051704;28;20210;-51
2022/05/31 06:28:38;;;;;;;1.07;0.90;;;10.40;99.90;;;;;;5047186;28;20211;-50
2022/05/31 06:31:04;;;;;;;2.43;1.43;;;10.50;99.90;;;;;;5041994;28;20227;-50
2022/05/31 06:33:31;;;;;;;3.73;1.07;;;10.60;99.90;;;;;;5044640;28;20201;-47
2022/05/31 06:36:01;;;;;;;0.80;0.80;;;10.70;99.90;;;;;;5044063;28;20743;-46
2022/05/31 06:38:28;;;;;;;2.67;1.10;;;10.70;99.90;;;;;;5040664;28;20220;-48
2022/05/31 06:40:57;;;;;;;1.10;1.00;;;10.80;99.90;;;;;;5053908;28;20238;-48
2022/05/31 06:43:43;;;;;;;2.13;1.17;;;10.90;99.90;;;;;;5050579;28;20210;-46
2022/05/31 06:46:28;;;;;;;1.37;0.90;;;11.00;99.90;;;;;;5031871;28;20330;-52
2022/05/31 06:49:14;;;;;;;1.10;1.00;;;11.00;99.90;;;;;;5046299;28;20776;-50
2022/05/31 06:58:17;;;;;;;3.03;1.10;;;11.30;99.90;;;;;;5051599;28;20232;-49
2022/05/31 07:00:50;;;;;;;3.10;1.00;;;11.30;99.90;;;;;;5045525;28;20222;-53
2022/05/31 07:03:17;;;;;;;1.37;1.17;;;11.40;99.90;;;;;;5042831;28;20307;-49
2022/05/31 07:05:44;;;;;;;2.13;1.00;;;11.50;99.90;;;;;;5040244;28;20243;-47
2022/05/31 07:08:19;;;;;;;0.93;0.93;;;11.60;99.90;;;;;;5051649;28;20214;-49
2022/05/31 07:10:59;;;;;;;2.00;0.97;;;11.70;99.90;;;;;;5052877;28;20237;-47
2022/05/31 07:13:46;;;;;;;1.00;0.90;;;11.80;99.90;;;;;;5059034;28;20202;-49
2022/05/31 07:16:32;;;;;;;2.80;1.47;;;11.90;99.90;;;;;;5063707;28;20221;-50
2022/05/31 07:19:28;;;;;;;1.23;1.13;;;12.00;99.90;;;;;;5046725;28;20229;-45
2022/05/31 07:21:57;;;;;;;0.87;0.70;;;12.00;99.90;;;;;;5040375;28;20200;-45
2022/05/31 07:24:24;;;;;;;2.40;0.70;;;12.10;99.90;;;;;;5040486;28;20293;-45
2022/05/31 07:27:11;;;;;;;0.50;0.50;;;12.20;99.90;;;;;;5055468;28;20233;-45
2022/05/31 07:29:41;;;;;;;1.33;0.70;;;12.20;99.90;;;;;;5055144;28;20222;-46
2022/05/31 07:32:09;;;;;;;1.23;0.90;;;12.20;99.90;;;;;;5042990;28;20764;-50
2022/05/31 07:34:36;;;;;;;1.10;0.60;;;12.20;99.90;;;;;;5043136;28;20206;-49
2022/05/31 07:37:03;;;;;;;1.03;0.80;;;12.20;99.90;;;;;;5038278;28;20196;-49
2022/05/31 07:39:30;;;;;;;0.83;0.70;;;12.10;99.90;;;;;;5046463;28;20228;-48
2022/05/31 07:41:56;;;;;;;0.90;0.60;;;12.20;99.90;;;;;;5044165;28;20190;-49
2022/05/31 07:44:26;;;;;;;1.17;0.60;;;12.20;99.90;;;;;;5046363;28;20273;-51
2022/05/31 07:46:55;;;;;;;0.60;0.60;;;12.30;99.90;;;;;;5038552;28;20207;-47
2022/05/31 07:49:22;;;;;;;0.93;0.80;;;12.30;99.90;;;;;;5040008;28;20300;-48
2022/05/31 07:51:58;;;;;;;2.27;0.53;;;12.40;99.90;;;;;;5043290;28;20853;-47
2022/05/31 07:54:47;;;;;;;1.43;0.70;;;12.50;99.90;;;;;;5040679;28;20317;-49
2022/05/31 08:00:37;;;;;;;0.67;0.50;;;12.60;99.90;;;;;;5050506;28;20210;-50
2022/05/31 08:03:06;;;;;;;0.80;0.70;;;12.70;99.90;;;;;;5039966;28;20992;-49
2022/05/31 08:05:36;;;;;;;2.77;1.03;;;12.70;99.90;;;;;;5037027;28;20213;-49
2022/05/31 08:08:03;;;;;;;1.93;0.60;;;12.80;99.90;;;;;;5040263;28;20222;-48
2022/05/31 08:10:30;;;;;;;0.93;0.60;;;12.90;99.90;;;;;;5055894;28;20210;-45
2022/05/31 08:12:57;;;;;;;1.70;0.90;;;13.00;99.90;;;;;;5046951;28;20198;-49
2022/05/31 08:15:25;;;;;;;1.03;0.60;;;13.10;99.90;;;;;;5043250;28;20812;-45
2022/05/31 08:17:51;;;;;;;0.70;0.70;;;13.10;99.90;;;;;;5039462;28;20253;-50
2022/05/31 08:20:20;;;;;;;0.50;0.50;;;13.10;99.90;;;;;;5037462;28;20202;-47
2022/05/31 08:22:48;;;;;;;0.83;0.50;;;13.10;99.90;;;;;;5048596;28;20655;-49
2022/05/31 08:25:15;;;;;;;0.80;0.50;;;13.00;99.90;;;;;;5050330;28;20226;-47
2022/05/31 08:27:42;;;;;;;1.07;0.63;;;13.00;99.90;;;;;;5041265;28;20203;-50
2022/05/31 08:30:10;;;;;;;0.93;0.50;;;13.00;99.90;;;;;;5042396;28;20936;-46
2022/05/31 08:32:37;;;;;;;0.60;0.60;;;13.00;99.90;;;;;;5046586;28;20294;-50
2022/05/31 08:35:05;;;;;;;1.00;0.50;;;13.00;99.90;;;;;;5036482;28;20214;-48
2022/05/31 08:37:34;;;;;;;0.87;0.60;;;13.00;99.90;;;;;;5059956;28;20206;-49
2022/05/31 08:40:01;;;;;;;1.57;0.67;;;13.00;99.90;;;;;;5047717;28;20213;-45
2022/05/31 08:42:43;;;;;;;1.23;0.70;;;13.00;99.90;;;;;;5055724;28;20204;-47
2022/05/31 08:45:16;;;;;;;0.67;0.50;;;13.10;99.90;;;;;;5042842;28;20203;-48
2022/05/31 08:47:46;;;;;;;0.50;0.50;;;13.20;99.90;;;;;;5044845;28;20191;-47
2022/05/31 08:53:26;;;;;;;1.37;0.80;;;13.50;99.90;;;;;;5043266;28;20190;-47
2022/05/31 08:58:49;;;;;;;2.00;0.97;;;13.70;99.90;;;;;;5045886;28;20702;-50
2022/05/31 09:01:23;;;;;;;1.50;0.40;;;13.80;99.90;;;;;;5054470;28;20225;-46
2022/05/31 09:03:53;;;;;;;0.70;0.70;;;13.90;99.90;;;;;;5042724;28;20192;-49
2022/05/31 09:06:27;;;;;;;0.60;0.60;;;14.00;99.90;;;;;;5046805;28;20214;-45
2022/05/31 09:09:04;;;;;;;0.93;0.60;;;14.10;99.90;;;;;;5045219;28;20215;-45
2022/05/31 09:11:35;;;;;;;2.47;0.80;;;14.10;99.90;;;;;;5052249;28;20223;-45
2022/05/31 09:14:11;;;;;;;2.50;0.63;;;14.10;99.90;;;;;;5053480;28;20188;-47
2022/05/31 09:16:47;;;;;;;1.07;0.33;;;14.20;99.90;;;;;;5046243;28;20206;-48
2022/05/31 09:19:21;;;;;;;1.53;0.30;;;14.20;99.90;;;;;;5058735;28;20229;-46
2022/05/31 09:21:50;;;;;;;0.60;0.33;;;14.20;99.90;;;;;;5053737;28;20651;-50
2022/05/31 09:24:21;;;;;;;0.60;0.50;;;14.20;99.90;;;;;;5040969;28;20257;-49
2022/05/31 09:27:00;;;;;;;0.67;0.40;;;14.20;99.90;;;;;;5047230;28;20199;-47
2022/05/31 09:29:34;;;;;;;1.53;0.90;;;14.30;99.90;;;;;;5055923;28;20667;-44
2022/05/31 09:32:25;;;;;;;0.57;0.57;;;14.30;99.90;;;;;;5053620;28;20213;-45
2022/05/31 09:35:13;;;;;;;0.70;0.50;;;14.40;99.90;;;;;;5054902;28;20763;-47
2022/05/31 09:38:03;;;;;;;1.30;0.40;;;14.40;99.90;;;;;;5047722;28;20203;-51
2022/05/31 09:40:39;;;;;;;0.67;0.60;;;14.50;99.90;;;;;;5048916;28;20203;-45
2022/05/31 09:43:15;;;;;;;1.23;0.37;;;14.50;99.90;;;;;;5044017;28;20191;-46
2022/05/31 09:45:51;;;;;;;0.83;0.60;;;14.50;99.90;;;;;;5052269;28;20226;-49
2022/05/31 09:48:18;;;;;;;4.20;0.60;;;14.50;99.90;;;;;;5053558;28;20224;-46
2022/05/31 09:50:45;;;;;;;2.20;0.83;;;14.60;99.90;;;;;;5048150;28;20219;-47
2022/05/31 09:59:05;;;;;;;0.60;0.40;;;;;;;;;;5055202;28;20297;-49
2022/05/31 10:01:51;;;;;;;0.67;0.50;;;14.80;99.90;;;;;;5047544;28;20249;-47
2022/05/31 10:04:28;;;;;;;0.40;0.40;;;14.90;99.90;;;;;;5044627;28;20211;-48
2022/05/31 10:06:58;;;;;;;0.50;0.43;;;15.00;99.90;;;;;;5059045;28;20195;-49
2022/05/31 10:09:35;;;;;;;1.37;0.43;;;15.00;99.90;;;;;;5053551;28;20233;-46
2022/05/31 10:12:15;;;;;;;1.37;0.40;;;15.10;99.90;;;;;;5041496;28;20218;-48
2022/05/31 10:14:44;;;;;;;0.83;0.50;;;15.10;99.90;;;;;;5045039;28;20223;-49
2022/05/31 10:17:28;;;;;;;0.40;0.40;;;15.10;99.90;;;;;;5045266;28;20651;-47
2022/05/31 10:20:19;;;;;;;0.30;0.27;;;15.10;99.90;;;;;;5041436;28;20211;-49
2022/05/31 10:22:56;;;;;;;2.50;0.50;;;15.10;99.90;;;;;;5042442;28;20199;-46
2022/05/31 10:25:44;;;;;;;0.57;0.40;;;15.20;99.90;;;;;;5047620;28;20293;-48
2022/05/31 10:28:32;;;;;;;1.70;0.50;;;15.30;99.90;;;;;;5050155;28;20320;-46
2022/05/31 10:31:04;;;;;;;0.60;0.50;;;15.50;99.90;;;;;;5047826;28;20405;-46
2022/05/31 10:33:38;;;;;;;0.97;0.63;;;15.60;99.90;;;;;;5044426;28;20210;-48
2022/05/31 10:36:09;;;;;;;2.47;0.57;;;15.60;99.90;;;;;;5050000;28;20187;-49
2022/05/31 10:38:40;;;;;;;2.33;0.70;;;15.50;99.90;;;;;;5050524;28;20226;-50
2022/05/31 10:41:11;;;;;;;0.70;0.40;;;15.50;99.90;;;;;;5052192;28;20198;-46
2022/05/31 10:43:42;;;;;;;0.40;0.40;;;15.50;99.90;;;;;;5038102;28;20674;-47
2022/05/31 10:46:13;;;;;;;0.30;0.30;;;15.50;99.00;;;;;;5051328;28;20863;-48
2022/05/31 10:48:46;;;;;;;0.93;0.50;;;15.50;98.40;;;;;;5046539;28;20273;-48
2022/05/31 10:51:21;;;;;;;1.40;0.60;;;15.50;98.70;;;;;;5047829;28;20318;-46
2022/05/31 10:54:00;;;;;;;0.40;0.40;;;15.60;99.00;;;;;;5040327;28;20213;-48
2022/05/31 10:56:37;;;;;;;0.97;0.60;;;15.60;99.00;;;;;;5048925;28;20207;-51
2022/05/31 10:59:10;;;;;;;1.20;0.70;;;15.80;98.90;;;;;;5043663;28;20230;-49
2022/05/31 11:01:53;;;;;;;1.50;0.50;;;16.10;99.90;;;;;;5042639;28;20206;-48
2022/05/31 11:04:35;;;;;;;1.10;0.60;;;16.30;98.50;;;;;;5059071;28;20202;-50
2022/05/31 11:07:13;;;;;;;0.80;0.50;;;16.30;98.00;;;;;;5056248;28;20203;-49
2022/05/31 11:12:47;;;;;;;2.10;0.50;;;16.30;97.70;;;;;;5043798;28;20699;-48
2022/05/31 11:15:32;;;;;;;0.50;0.50;;;16.40;98.70;;;;;;5046944;28;20199;-45
2022/05/31 11:18:25;;;;;;;0.23;0.20;;;16.40;97.30;;;;;;5045733;28;20211;-48
2022/05/31 11:20:59;;;;;;;0.40;0.40;;;16.10;95.80;;;;;;5044309;28;20202;-49
2022/05/31 11:23:46;;;;;;;0.70;0.23;;;16.00;96.70;;;;;;5041046;28;20253;-45
2022/05/31 11:26:28;;;;;;;2.37;0.40;;;16.10;97.00;;;;;;5056363;28;20194;-46
2022/05/31 11:29:11;;;;;;;0.87;0.53;;;16.00;97.90;;;;;;5044854;28;20214;-45
2022/05/31 11:31:53;;;;;;;0.70;0.30;;;16.10;97.30;;;;;;5041460;28;20552;-47
2022/05/31 11:34:35;;;;;;;0.70;0.30;;;16.00;96.50;;;;;;5043999;28;20195;-46
2022/05/31 11:37:16;;;;;;;1.53;0.40;;;16.00;95.60;;;;;;5054696;28;20191;-46
2022/05/31 11:39:57;;;;;;;0.67;0.30;;;16.00;95.60;;;;;;5045544;28;20230;-46
2022/05/31 11:42:39;;;;;;;0.60;0.60;;;16.10;95.60;;;;;;5054258;28;20199;-45
2022/05/31 11:45:17;;;;;;;0.53;0.50;;;16.20;95.50;;;;;;5042108;28;20253;-48
2022/05/31 11:48:02;;;;;;;1.10;0.50;;;16.40;94.90;;;;;;5035841;28;20210;-52
2022/05/31 11:50:37;;;;;;;0.23;0.23;;;16.50;92.60;;;;;;5054276;28;20202;-48
2022/05/31 11:53:26;;;;;;;1.27;0.67;;;16.50;93.30;;;;;;5046217;28;20376;-48
2022/05/31 11:56:00;;;;;;;0.40;0.40;;;16.60;93.20;;;;;;5042784;28;20206;-45
2022/05/31 11:58:40;;;;;;;0.80;0.40;;;16.90;92.60;;;;;;5043299;28;20237;-47
2022/05/31 12:01:14;;;;;;;0.83;0.30;;;17.10;91.80;;;;;;5051327;28;20199;-45
2022/05/31 12:03:56;;;;;;;0.90;0.40;;;17.20;91.00;;;;;;5041477;28;20203;-46
2022/05/31 12:06:34;;;;;;;0.37;0.30;;;17.10;90.20;;;;;;5047523;28;20553;-46
2022/05/31 12:09:08;;;;;;;0.27;0.27;;;17.10;88.90;;;;;;5046006;28;20271;-45
2022/05/31 12:11:40;;;;;;;0.30;0.30;;;17.10;90.20;;;;;;5049715;28;20301;-46
2022/05/31 12:14:11;;;;;;;2.57;0.17;;;17.30;88.70;;;;;;5038332;28;20206;-45
2022/05/31 12:16:39;;;;;;;1.27;0.60;;;17.30;88.80;;;;;;5040612;28;20198;-46
2022/05/31 12:19:18;;;;;;;1.17;0.50;;;17.50;87.10;;;;;;5047014;28;20540;-47
2022/05/31 12:21:52;;;;;;;0.53;0.40;;;17.50;88.00;;;;;;5036719;28;20203;-46
2022/05/31 12:24:24;;;;;;;0.43;0.40;;;17.50;86.30;;;;;;5051620;28;20217;-49
2022/05/31 12:26:55;;;;;;;0.37;0.30;;;17.50;84.80;;;;;;5049654;28;20931;-49
2022/05/31 12:29:25;;;;;;;0.57;0.20;;;17.50;85.10;;;;;;5042065;28;20223;-50
2022/05/31 12:32:29;;;;;;;1.27;0.30;;;17.60;88.80;;;;;;5052661;28;20206;-46
2022/05/31 12:34:57;;;;;;;0.20;0.17;;;17.50;84.40;;;;;;5053615;28;20198;-48
2022/05/31 12:37:26;;;;;;;1.67;0.50;;;17.30;89.40;;;;;;5042971;28;20294;-51
2022/05/31 12:40:26;;;;;;;0.97;0.50;;;17.30;90.50;;;;;;5054792;28;20259;-45
2022/05/31 12:42:53;;;;;;;1.60;1.10;;;17.40;88.80;;;;;;5044433;28;20199;-46
2022/05/31 12:45:38;;;;;;;1.47;0.47;;;17.40;89.50;;;;;;5043010;28;20255;-52
2022/05/31 12:48:17;;;;;;;0.60;0.43;;;17.50;88.50;;;;;;5048165;28;20246;-47
2022/05/31 12:50:48;;;;;;;0.50;0.30;;;17.60;88.20;;;;;;5052391;28;20349;-48
2022/05/31 12:53:20;;;;;;;0.40;0.40;;;17.70;88.90;;;;;;5048512;28;20227;-46
2022/05/31 12:55:52;;;;;;;1.20;0.70;;;17.70;88.60;;;;;;5051867;28;20194;-50
2022/05/31 12:58:47;;;;;;;0.93;0.23;;;17.70;88.60;;;;;;5048416;28;20230;-48
2022/05/31 13:01:35;;;;;;;0.70;0.30;;;18.00;87.30;;;;;;5037856;28;20214;-47
2022/05/31 13:04:31;;;;;;;1.20;0.37;;;18.00;82.50;;;;;;5044517;28;20207;-46
2022/05/31 13:07:10;;;;;;;0.57;0.43;;;17.90;83.30;;;;;;5049008;28;20656;-48
2022/05/31 13:09:41;;;;;;;1.10;0.50;;;17.80;85.30;;;;;;5046505;28;20205;-47
2022/05/31 13:20:42;;;;;;;0.40;0.40;;;17.70;82.30;;;;;;5047541;28;20201;-48
2022/05/31 13:23:13;;;;;;;0.53;0.40;;;17.60;83.50;;;;;;5045493;28;20210;-51
2022/05/31 13:25:45;;;;;;;0.40;0.30;;;17.70;82.80;;;;;;5046892;28;20682;-46
2022/05/31 13:28:24;;;;;;;0.70;0.40;;;17.80;84.00;;;;;;5048875;28;20223;-47
2022/05/31 13:30:51;;;;;;;0.50;0.50;;;17.90;86.70;;;;;;5058274;28;20201;-45
2022/05/31 13:33:20;;;;;;;1.23;0.40;;;17.90;83.10;;;;;;5052603;28;20663;-46
2022/05/31 13:35:57;;;;;;;0.40;0.27;;;17.90;81.10;;;;;;5044639;28;20194;-46
2022/05/31 13:38:29;;;;;;;2.03;0.40;;;17.80;81.60;;;;;;5048218;28;20234;-49
2022/05/31 13:40:58;;;;;;;0.20;0.20;;;17.70;80.70;;;;;;5056903;28;20587;-46
2022/05/31 13:43:29;;;;;;;0.63;0.30;;;17.60;80.60;;;;;;5047308;28;20215;-45
2022/05/31 13:45:59;;;;;;;0.43;0.20;;;17.70;82.20;;;;;;5045164;28;20230;-50
2022/05/31 13:48:29;;;;;;;0.77;0.50;;;17.80;85.10;;;;;;5047515;28;20310;-48
2022/05/31 13:51:00;;;;;;;0.23;0.20;;;18.00;82.90;;;;;;5048788;28;20214;-47
2022/05/31 13:53:35;;;;;;;0.63;0.63;;;18.20;81.50;;;;;;5044445;28;20219;-49
2022/05/31 13:56:02;;;;;;;1.63;0.50;;;18.40;80.40;;;;;;5045909;28;20194;-49
2022/05/31 13:58:31;;;;;;;0.33;0.30;;;18.60;81.10;;;;;;5054038;28;20581;-47
2022/05/31 14:00:58;;;;;;;1.20;0.30;;;18.50;79.80;;;;;;5047517;28;20210;-48
2022/05/31 14:03:28;;;;;;;0.30;0.20;;;18.60;81.90;;;;;;5040807;28;20204;-46
2022/05/31 14:06:00;;;;;;;1.43;0.40;;;18.70;82.60;;;;;;5052729;28;20284;-47